North Jay, Maine
Current Conditions -  °F | °C
As of 7:53 AM on Tuesday 21 Oct 2014 (Local Time) from KAUG Reporting Station
Broken Clouds Broken Clouds  
Wind Chill: 40°   Ceiling: 6500
Heat Index: 43°   Visibility: 10mi
Dew Point: 39°   Wind: 5mph
Humidity: 86%   Direction: 20°NNE
Pressure: 30.04"   Gusts: NA
Location:  44.55°N, 70.24°W
Report Text: KAUG 211153Z AUTO 02004KT 10SM BKN065 BKN080 BKN120 06/04 A3004 RMK AO2 RAB05E47 SLP174 P0000 60000 T00610039 10061 20056 51006
Loading
Personal Weather Stations






























Interactive Weather Map
Tropical Storm Tracking
New forecast layout! Learn more

10-Day Weather Forecast

Advertisements
Track Severe Weather on mobile